Time;durP1;ratioP1;P1;durP2;ratioP2;P2;SDS_P1;SDS_P2;PMS_P1;PMS_P2;Temp;Humidity;BMP_temperature;BMP_pressure;BME280_temperature;BME280_humidity;BME280_pressure;Samples;Min_cycle;Max_cycle;Signal;HPM_P1;HPM_P2
2022/05/13 00:01:38;;;;;;;4.27;1.20;;;24.10;47.80;;;;;;5049050;28;20463;-73
2022/05/13 00:04:08;;;;;;;1.87;1.30;;;24.10;47.80;;;;;;5043141;28;20471;-73
2022/05/13 00:06:36;;;;;;;1.20;1.10;;;24.10;48.00;;;;;;5029599;28;20515;-73
2022/05/13 00:09:05;;;;;;;1.90;0.83;;;24.10;48.00;;;;;;5047398;28;20474;-73
2022/05/13 00:11:33;;;;;;;1.43;1.17;;;24.10;47.90;;;;;;5040432;28;20475;-73
2022/05/13 00:14:01;;;;;;;1.03;0.90;;;24.00;47.90;;;;;;5022564;28;21029;-73
2022/05/13 00:16:29;;;;;;;1.00;0.97;;;24.00;48.00;;;;;;5011483;28;20452;-73
2022/05/13 00:18:59;;;;;;;1.10;1.00;;;24.00;48.00;;;;;;5018449;28;21092;-73
2022/05/13 00:21:29;;;;;;;1.20;0.90;;;24.00;48.00;;;;;;5019923;28;20880;-73
2022/05/13 00:23:57;;;;;;;2.13;1.17;;;24.00;48.10;;;;;;5037118;28;20961;-74
2022/05/13 00:26:25;;;;;;;1.80;0.90;;;24.00;48.10;;;;;;5045255;28;21105;-73
2022/05/13 00:28:53;;;;;;;1.00;0.90;;;24.00;48.10;;;;;;5048340;28;20461;-72
2022/05/13 00:31:22;;;;;;;1.90;1.50;;;24.00;48.10;;;;;;5035751;28;20448;-73
2022/05/13 00:33:51;;;;;;;1.67;1.53;;;24.00;48.10;;;;;;5041071;28;20500;-73
2022/05/13 00:36:19;;;;;;;1.30;0.83;;;24.00;48.20;;;;;;5022744;28;20469;-73
2022/05/13 00:38:49;;;;;;;1.37;0.97;;;24.00;48.30;;;;;;5027295;28;20462;-73
2022/05/13 00:41:17;;;;;;;1.70;1.00;;;24.00;48.10;;;;;;5011767;28;20530;-73
2022/05/13 00:43:49;;;;;;;2.60;1.10;;;24.00;48.10;;;;;;5011613;28;21043;-73
2022/05/13 00:46:18;;;;;;;1.27;1.03;;;23.90;48.20;;;;;;5014342;28;20461;-73
2022/05/13 00:48:47;;;;;;;1.17;1.00;;;23.90;48.20;;;;;;5014511;28;20488;-73
2022/05/13 00:51:20;;;;;;;1.70;1.20;;;23.90;48.30;;;;;;5014423;28;20515;-74
2022/05/13 00:53:50;;;;;;;2.37;1.30;;;23.90;48.30;;;;;;5014348;28;20516;-73
2022/05/13 00:56:19;;;;;;;1.20;1.10;;;23.90;48.40;;;;;;5013233;28;20567;-72
2022/05/13 00:58:51;;;;;;;1.00;0.80;;;23.90;48.40;;;;;;5049661;28;20904;-73
2022/05/13 01:01:19;;;;;;;2.43;1.27;;;23.90;48.40;;;;;;5044203;28;20466;-73
2022/05/13 01:03:49;;;;;;;1.10;1.00;;;23.90;48.30;;;;;;5033113;28;20465;-73
2022/05/13 01:06:21;;;;;;;0.90;0.80;;;23.90;48.40;;;;;;5011137;28;20461;-73
2022/05/13 01:08:51;;;;;;;1.17;1.07;;;23.90;48.50;;;;;;5007100;28;20568;-73
2022/05/13 01:11:22;;;;;;;1.27;1.17;;;23.90;48.40;;;;;;5012050;28;20938;-72
2022/05/13 01:14:01;;;;;;;0.93;0.90;;;23.90;48.40;;;;;;5013833;28;20884;-74
2022/05/13 01:18:04;;;;;;;1.63;1.50;;;23.90;48.40;;;;;;5014707;28;20462;-73
2022/05/13 01:19:18;;;;;;;1.63;1.00;;;23.90;48.50;;;;;;5018796;28;20979;-73
2022/05/13 01:21:48;;;;;;;2.57;1.50;;;23.90;48.40;;;;;;5011550;28;20534;-74
2022/05/13 01:24:17;;;;;;;1.50;1.00;;;23.90;48.50;;;;;;5026328;28;20457;-74
2022/05/13 01:26:45;;;;;;;2.93;0.93;;;23.90;48.50;;;;;;5029882;28;20969;-73
2022/05/13 01:29:14;;;;;;;0.90;0.90;;;23.90;48.60;;;;;;5039163;28;20495;-72
2022/05/13 01:31:43;;;;;;;1.37;1.07;;;23.80;48.60;;;;;;5037246;28;20463;-73
2022/05/13 01:34:14;;;;;;;3.03;1.13;;;23.80;48.60;;;;;;5018038;28;20510;-73
2022/05/13 01:36:43;;;;;;;0.90;0.80;;;23.80;48.60;;;;;;5032947;28;20518;-73
2022/05/13 01:39:12;;;;;;;1.20;0.90;;;23.80;48.50;;;;;;5040262;28;20460;-73
2022/05/13 01:41:40;;;;;;;1.50;1.13;;;23.80;48.60;;;;;;5043344;28;21033;-74
2022/05/13 01:44:08;;;;;;;1.33;1.00;;;23.80;48.60;;;;;;5049247;28;20872;-73
2022/05/13 01:46:37;;;;;;;1.30;1.20;;;23.80;48.70;;;;;;5049752;28;20461;-74
2022/05/13 01:49:06;;;;;;;1.10;1.00;;;23.80;48.60;;;;;;5025763;28;20512;-73
2022/05/13 01:51:34;;;;;;;1.77;1.27;;;23.80;48.70;;;;;;5012770;28;20445;-73
2022/05/13 01:54:02;;;;;;;1.37;1.00;;;23.80;48.80;;;;;;5013090;28;20575;-74
2022/05/13 01:56:31;;;;;;;1.07;0.90;;;23.80;48.70;;;;;;5012141;28;20861;-73
2022/05/13 01:58:59;;;;;;;1.47;1.00;;;23.80;48.80;;;;;;5019664;28;20459;-74
2022/05/13 02:01:27;;;;;;;1.50;1.00;;;23.80;48.90;;;;;;5033421;28;20871;-73
2022/05/13 02:03:55;;;;;;;1.67;0.97;;;23.80;48.70;;;;;;5026020;28;20961;-73
2022/05/13 02:06:25;;;;;;;1.23;1.13;;;23.70;48.70;;;;;;5009329;28;20463;-74
2022/05/13 02:08:55;;;;;;;1.13;1.03;;;23.80;48.90;;;;;;5012843;28;20461;-73
2022/05/13 02:11:25;;;;;;;1.17;1.07;;;23.70;48.80;;;;;;5009079;28;20911;-74
2022/05/13 02:13:55;;;;;;;1.00;0.90;;;23.70;48.60;;;;;;5023129;28;20809;-73
2022/05/13 02:16:23;;;;;;;1.47;1.37;;;23.70;48.70;;;;;;5045039;28;20880;-74
2022/05/13 02:18:51;;;;;;;1.37;1.03;;;23.70;48.90;;;;;;5026529;28;20543;-73
2022/05/13 02:21:20;;;;;;;1.23;0.93;;;23.70;48.90;;;;;;5010872;28;20996;-73
2022/05/13 02:23:48;;;;;;;1.43;1.20;;;23.70;48.90;;;;;;5017895;28;20517;-73
2022/05/13 02:26:17;;;;;;;1.30;1.10;;;23.60;48.70;;;;;;5016792;28;20479;-74
2022/05/13 02:28:46;;;;;;;1.13;1.03;;;23.60;48.80;;;;;;5012456;28;20891;-73
2022/05/13 02:31:16;;;;;;;1.37;0.90;;;23.60;48.90;;;;;;5033163;28;20917;-73
2022/05/13 02:33:44;;;;;;;1.83;0.80;;;23.60;48.90;;;;;;5040581;28;20573;-73
2022/05/13 02:36:14;;;;;;;1.73;1.40;;;23.60;49.00;;;;;;5033595;28;20462;-73
2022/05/13 02:38:42;;;;;;;2.80;1.13;;;23.60;48.90;;;;;;5046021;28;20492;-73
2022/05/13 02:41:13;;;;;;;1.47;1.10;;;23.60;48.90;;;;;;5040287;28;20470;-73
2022/05/13 02:43:43;;;;;;;1.80;0.80;;;23.60;48.90;;;;;;5044825;28;20466;-73
2022/05/13 02:46:12;;;;;;;0.83;0.83;;;23.60;48.90;;;;;;5036730;28;20477;-73
2022/05/13 02:48:42;;;;;;;3.87;1.00;;;23.60;49.00;;;;;;5032872;28;20471;-73
2022/05/13 02:51:10;;;;;;;1.40;1.27;;;23.60;49.00;;;;;;5017093;28;20672;-73
2022/05/13 02:53:39;;;;;;;1.20;1.00;;;23.60;48.90;;;;;;5028103;28;21163;-73
2022/05/13 02:56:07;;;;;;;1.73;1.30;;;23.60;49.00;;;;;;5011575;28;20462;-72
2022/05/13 02:58:36;;;;;;;1.20;0.90;;;23.60;49.00;;;;;;5012366;28;20467;-73
2022/05/13 03:01:06;;;;;;;1.33;0.70;;;23.60;49.10;;;;;;5012241;28;20537;-74
2022/05/13 03:03:34;;;;;;;2.20;0.97;;;23.60;48.90;;;;;;5011425;28;20973;-72
2022/05/13 03:06:04;;;;;;;1.10;1.00;;;23.50;49.00;;;;;;5001053;28;20469;-74
2022/05/13 03:08:32;;;;;;;1.30;0.80;;;23.50;48.90;;;;;;5012017;28;20514;-73
2022/05/13 03:11:02;;;;;;;1.17;0.80;;;23.50;49.00;;;;;;5011858;28;20433;-73
2022/05/13 03:13:30;;;;;;;1.30;0.90;;;23.50;49.00;;;;;;5004769;28;20459;-74
2022/05/13 03:16:02;;;;;;;1.13;1.00;;;23.50;49.00;;;;;;5036515;28;20494;-74
2022/05/13 03:18:30;;;;;;;1.60;1.10;;;23.50;49.00;;;;;;5029158;28;21030;-72
2022/05/13 03:20:58;;;;;;;1.00;0.93;;;23.50;49.00;;;;;;5003066;28;20789;-74
2022/05/13 03:23:29;;;;;;;1.23;1.00;;;23.50;49.00;;;;;;5009202;28;20500;-73
2022/05/13 03:25:57;;;;;;;1.33;1.00;;;23.50;49.10;;;;;;5028644;28;20528;-73
2022/05/13 03:28:25;;;;;;;1.53;1.33;;;23.50;49.10;;;;;;5003655;28;20473;-73
2022/05/13 03:30:53;;;;;;;2.13;1.07;;;23.40;48.80;;;;;;5043603;28;20423;-73
2022/05/13 03:33:22;;;;;;;1.30;1.20;;;23.40;49.00;;;;;;5044691;28;20526;-73
2022/05/13 03:35:50;;;;;;;1.80;1.27;;;23.40;49.00;;;;;;5010984;28;20453;-72
2022/05/13 03:38:18;;;;;;;1.57;0.90;;;23.40;49.00;;;;;;5006787;28;20441;-72
2022/05/13 03:40:48;;;;;;;1.50;1.00;;;23.40;49.00;;;;;;5016807;28;20428;-73
2022/05/13 03:43:17;;;;;;;2.03;1.23;;;23.40;49.20;;;;;;5001214;28;20474;-73
2022/05/13 03:45:46;;;;;;;1.17;1.07;;;23.40;49.10;;;;;;5022599;28;20456;-74
2022/05/13 03:48:14;;;;;;;1.10;0.90;;;23.40;49.20;;;;;;5027680;28;20461;-73
2022/05/13 03:50:45;;;;;;;1.60;1.20;;;23.40;49.10;;;;;;5013658;28;20443;-74
2022/05/13 03:53:13;;;;;;;0.87;0.87;;;23.40;49.20;;;;;;5009446;28;20465;-73
2022/05/13 03:55:42;;;;;;;1.40;1.03;;;23.30;48.90;;;;;;5011919;28;20455;-72
2022/05/13 03:58:11;;;;;;;1.20;0.97;;;23.30;49.00;;;;;;5014972;28;20452;-72
2022/05/13 04:00:40;;;;;;;2.60;0.80;;;23.30;49.00;;;;;;5029893;28;20840;-74
2022/05/13 04:03:08;;;;;;;1.53;1.30;;;23.30;49.40;;;;;;5030025;28;20471;-73
2022/05/13 04:11:07;;;;;;;1.50;1.20;;;23.20;49.30;;;;;;5013745;28;20424;-73
2022/05/13 04:16:22;;;;;;;1.00;0.87;;;23.30;49.30;;;;;;5050724;28;20543;-72
2022/05/13 04:18:53;;;;;;;2.97;1.10;;;23.20;49.10;;;;;;5042505;28;20463;-73
2022/05/13 04:21:23;;;;;;;0.90;0.80;;;23.20;49.40;;;;;;5036883;28;20929;-74
2022/05/13 04:23:53;;;;;;;0.90;0.80;;;23.20;49.30;;;;;;5027212;28;21013;-74
2022/05/13 04:26:22;;;;;;;1.27;1.17;;;23.20;49.40;;;;;;5007117;28;21037;-74
2022/05/13 04:28:53;;;;;;;1.03;0.93;;;23.20;49.20;;;;;;5005910;28;20457;-73
2022/05/13 04:31:24;;;;;;;1.90;1.17;;;23.20;49.40;;;;;;5030210;28;20438;-73
2022/05/13 04:33:53;;;;;;;2.17;1.20;;;23.20;49.30;;;;;;5029594;28;20474;-74
2022/05/13 04:36:23;;;;;;;2.30;1.00;;;23.20;49.30;;;;;;5018413;28;20498;-73
2022/05/13 04:38:52;;;;;;;3.33;1.20;;;23.20;49.40;;;;;;5025883;28;20497;-74
2022/05/13 04:44:09;;;;;;;1.40;1.03;;;23.20;49.40;;;;;;5013215;28;20474;-73
2022/05/13 04:46:38;;;;;;;2.07;1.13;;;23.10;49.40;;;;;;5024123;28;20458;-73
2022/05/13 04:49:07;;;;;;;1.40;1.00;;;23.10;49.20;;;;;;5021098;28;20460;-73
2022/05/13 04:51:36;;;;;;;1.10;0.97;;;23.10;49.40;;;;;;5017393;28;20442;-73
2022/05/13 04:54:06;;;;;;;1.00;0.90;;;23.10;49.40;;;;;;5017926;28;20474;-72
2022/05/13 04:56:35;;;;;;;3.67;1.80;;;23.10;49.10;;;;;;5006918;28;20463;-73
2022/05/13 04:59:04;;;;;;;4.30;1.90;;;23.00;37.60;;;;;;5011581;28;20467;-73
2022/05/13 05:01:33;;;;;;;6.35;2.20;;;22.90;39.10;;;;;;5044199;28;20443;-73
2022/05/13 05:04:01;;;;;;;4.07;1.97;;;22.70;42.10;;;;;;5025583;28;20306;-73
2022/05/13 05:06:30;;;;;;;3.07;1.30;;;22.50;43.80;;;;;;5008644;28;20473;-73
2022/05/13 05:08:58;;;;;;;2.60;1.40;;;22.40;44.60;;;;;;5013840;28;20465;-73
2022/05/13 05:11:31;;;;;;;5.10;1.57;;;22.40;45.40;;;;;;5009931;28;20492;-73
2022/05/13 05:14:02;;;;;;;2.07;1.53;;;22.50;45.70;;;;;;5020312;28;20877;-73
2022/05/13 05:16:30;;;;;;;3.20;1.40;;;22.50;45.90;;;;;;5028183;28;20514;-73
2022/05/13 05:19:00;;;;;;;2.10;1.33;;;22.50;45.90;;;;;;5031776;28;20483;-73
2022/05/13 05:21:29;;;;;;;5.20;1.93;;;22.60;45.90;;;;;;5037987;28;20429;-73
2022/05/13 05:23:58;;;;;;;2.50;1.37;;;22.60;45.90;;;;;;5036369;28;20865;-73
2022/05/13 05:26:26;;;;;;;2.50;1.63;;;22.60;46.00;;;;;;5010017;28;20489;-74
2022/05/13 05:28:54;;;;;;;1.37;1.27;;;22.70;46.10;;;;;;5009511;28;21039;-73
2022/05/13 05:31:22;;;;;;;1.80;1.40;;;22.70;46.20;;;;;;5028027;28;20484;-73
2022/05/13 05:33:50;;;;;;;1.97;1.50;;;22.70;46.20;;;;;;5019006;28;20905;-74
2022/05/13 05:36:20;;;;;;;2.00;1.40;;;22.70;46.10;;;;;;5027973;28;20452;-73
2022/05/13 05:38:48;;;;;;;4.13;1.27;;;22.70;46.20;;;;;;5039568;28;20455;-74
2022/05/13 05:41:18;;;;;;;1.63;1.10;;;22.70;46.00;;;;;;5037248;28;20438;-73
2022/05/13 05:43:46;;;;;;;2.10;1.03;;;22.80;46.40;;;;;;5028276;28;20466;-73
2022/05/13 05:46:14;;;;;;;1.50;1.40;;;22.80;46.50;;;;;;5013970;28;20453;-74
2022/05/13 05:48:42;;;;;;;1.70;1.60;;;22.80;46.50;;;;;;5017724;28;20518;-73
2022/05/13 05:51:10;;;;;;;3.87;1.53;;;22.80;46.20;;;;;;5018214;28;20445;-73
2022/05/13 05:59:11;;;;;;;3.10;1.80;;;22.60;43.30;;;;;;5017260;28;20587;-72
2022/05/13 06:01:39;;;;;;;2.87;1.47;;;22.50;42.90;;;;;;5033582;28;20428;-72
2022/05/13 06:04:07;;;;;;;4.87;1.67;;;22.40;42.10;;;;;;5032690;28;20853;-72
2022/05/13 06:06:35;;;;;;;4.07;1.87;;;22.30;42.70;;;;;;5045949;28;20506;-73
2022/05/13 06:09:05;;;;;;;4.10;1.77;;;22.30;40.80;;;;;;5026510;28;20468;-72
2022/05/13 06:11:33;;;;;;;5.73;2.20;;;22.30;42.00;;;;;;5008193;28;20443;-72
2022/05/13 06:14:01;;;;;;;3.93;1.90;;;22.20;43.10;;;;;;5012295;28;20491;-72
2022/05/13 06:16:30;;;;;;;4.17;2.20;;;22.30;41.50;;;;;;5013090;28;20453;-72
2022/05/13 06:19:00;;;;;;;2.23;1.30;;;22.30;41.60;;;;;;5015548;28;20878;-72
2022/05/13 06:21:29;;;;;;;4.27;1.60;;;22.30;41.40;;;;;;5006774;28;20437;-71
2022/05/13 06:23:57;;;;;;;2.77;2.00;;;22.20;40.50;;;;;;5018545;28;20561;-72
2022/05/13 06:26:27;;;;;;;3.90;1.43;;;22.10;40.50;;;;;;5028603;28;20480;-72
2022/05/13 06:28:56;;;;;;;5.50;1.70;;;22.10;41.80;;;;;;5028871;28;20859;-72
2022/05/13 06:31:25;;;;;;;4.47;1.60;;;22.10;40.50;;;;;;5048347;28;20814;-74
2022/05/13 06:33:53;;;;;;;2.70;1.17;;;22.00;41.80;;;;;;5051008;28;20463;-73
2022/05/13 06:36:21;;;;;;;2.93;1.50;;;22.00;42.50;;;;;;5032711;28;20523;-73
2022/05/13 06:38:50;;;;;;;2.77;1.70;;;22.00;42.80;;;;;;5024700;28;20461;-73
2022/05/13 06:41:18;;;;;;;3.07;1.33;;;22.10;43.20;;;;;;4995091;28;20511;-74
2022/05/13 06:43:47;;;;;;;2.90;1.50;;;22.10;43.00;;;;;;5001538;28;20480;-73
2022/05/13 06:46:15;;;;;;;2.47;1.00;;;22.20;43.20;;;;;;5012812;28;20492;-73
2022/05/13 06:48:47;;;;;;;3.60;1.40;;;22.20;43.20;;;;;;5012338;28;20503;-74
2022/05/13 06:51:16;;;;;;;2.20;1.47;;;22.20;43.20;;;;;;5001437;28;20448;-73
2022/05/13 06:53:45;;;;;;;1.67;1.30;;;22.30;43.20;;;;;;5021210;28;20455;-73
2022/05/13 06:56:13;;;;;;;2.83;1.60;;;22.30;43.30;;;;;;5045170;28;20450;-73
2022/05/13 06:58:42;;;;;;;2.50;1.50;;;22.30;43.30;;;;;;5041523;28;20471;-73
2022/05/13 07:01:11;;;;;;;2.80;1.50;;;22.30;43.40;;;;;;5049235;28;20819;-73
2022/05/13 07:03:39;;;;;;;2.07;1.57;;;22.30;43.50;;;;;;5035806;28;20538;-73
2022/05/13 07:06:08;;;;;;;4.90;1.50;;;22.30;43.60;;;;;;5029487;28;20467;-73
2022/05/13 07:08:36;;;;;;;1.30;1.20;;;22.30;43.50;;;;;;5037715;28;20457;-73
2022/05/13 07:11:04;;;;;;;3.27;1.53;;;22.30;43.70;;;;;;5010960;28;20484;-72
2022/05/13 07:13:32;;;;;;;2.73;1.70;;;22.30;43.50;;;;;;5014745;28;20891;-73
2022/05/13 07:16:00;;;;;;;2.30;1.50;;;22.30;43.60;;;;;;5013635;28;20919;-73
2022/05/13 07:18:30;;;;;;;3.30;1.20;;;22.30;43.80;;;;;;5017541;28;20444;-73
2022/05/13 07:20:58;;;;;;;2.80;1.27;;;22.30;43.70;;;;;;5010337;28;20473;-73
2022/05/13 07:23:26;;;;;;;2.40;1.20;;;22.30;43.80;;;;;;5025670;28;20490;-73
2022/05/13 07:25:54;;;;;;;2.33;1.20;;;22.30;43.90;;;;;;5030372;28;20874;-73
2022/05/13 07:28:22;;;;;;;1.70;1.10;;;22.30;43.80;;;;;;5002880;28;20864;-73
2022/05/13 07:30:51;;;;;;;1.90;1.10;;;22.30;44.00;;;;;;5024267;28;20439;-73
2022/05/13 07:33:20;;;;;;;3.80;1.57;;;22.40;44.20;;;;;;5019760;28;20445;-73
2022/05/13 07:35:49;;;;;;;2.40;1.50;;;22.40;44.00;;;;;;5018425;28;20448;-73
2022/05/13 07:38:18;;;;;;;3.50;1.43;;;22.30;43.90;;;;;;5023133;28;20840;-73
2022/05/13 07:43:31;;;;;;;2.97;1.27;;;22.30;44.20;;;;;;5029671;28;20424;-73
2022/05/13 07:45:59;;;;;;;1.73;1.20;;;22.30;44.20;;;;;;5031369;28;20467;-73
2022/05/13 07:48:28;;;;;;;1.90;1.10;;;22.40;44.10;;;;;;5030888;28;20437;-73
2022/05/13 07:50:57;;;;;;;2.20;1.40;;;22.30;44.40;;;;;;5041332;28;20450;-74
2022/05/13 07:53:25;;;;;;;2.90;1.47;;;22.30;44.20;;;;;;5036787;28;20941;-74
2022/05/13 07:55:54;;;;;;;2.20;1.30;;;22.40;44.20;;;;;;5011106;28;20466;-74
2022/05/13 07:58:23;;;;;;;2.30;1.43;;;22.40;44.30;;;;;;5009333;28;20465;-74
2022/05/13 08:00:51;;;;;;;2.23;1.27;;;22.40;44.30;;;;;;5012310;28;20611;-73
2022/05/13 08:03:19;;;;;;;1.80;1.23;;;22.40;44.00;;;;;;5011923;28;20557;-74
2022/05/13 08:05:50;;;;;;;4.63;1.30;;;22.30;44.10;;;;;;5016956;28;20481;-74
2022/05/13 08:08:22;;;;;;;3.27;1.50;;;22.30;44.20;;;;;;5031250;28;20427;-74
2022/05/13 08:10:54;;;;;;;3.97;1.10;;;22.30;44.10;;;;;;5027692;28;20429;-73
2022/05/13 08:13:23;;;;;;;2.07;1.67;;;22.30;44.00;;;;;;4991682;28;20438;-73
2022/05/13 08:15:52;;;;;;;2.40;1.30;;;22.30;44.00;;;;;;5002490;28;20472;-74
2022/05/13 08:18:22;;;;;;;1.83;1.33;;;22.30;44.40;;;;;;5013687;28;20429;-74
2022/05/13 08:20:51;;;;;;;2.60;1.43;;;22.30;44.40;;;;;;5036139;28;20479;-72
2022/05/13 08:23:21;;;;;;;2.93;1.30;;;22.30;44.40;;;;;;5033543;28;20493;-73
2022/05/13 08:25:49;;;;;;;2.20;0.93;;;22.30;44.50;;;;;;5051224;28;20471;-74
2022/05/13 08:28:20;;;;;;;4.00;1.67;;;22.30;44.30;;;;;;5025135;28;20439;-73
2022/05/13 08:30:49;;;;;;;3.50;1.43;;;22.30;44.50;;;;;;5051717;28;20840;-74
2022/05/13 08:33:18;;;;;;;2.70;1.40;;;22.30;44.30;;;;;;5043665;28;20494;-73
2022/05/13 08:35:49;;;;;;;2.90;1.33;;;22.30;44.50;;;;;;5000616;28;20466;-72
2022/05/13 08:38:19;;;;;;;3.27;1.33;;;22.30;44.20;;;;;;5007064;28;20988;-74
2022/05/13 08:41:16;;;;;;;2.40;1.30;;;22.30;44.20;;;;;;5045261;28;20424;-73
2022/05/13 08:43:47;;;;;;;2.40;0.93;;;22.10;41.30;;;;;;5017782;28;21091;-74
2022/05/13 08:46:33;;;;;;;2.50;1.10;;;22.10;41.60;;;;;;5034852;28;20521;-74
2022/05/13 08:49:08;;;;;;;4.37;1.47;;;21.90;41.30;;;;;;5026650;28;20508;-73
2022/05/13 08:51:49;;;;;;;3.60;1.30;;;21.80;42.80;;;;;;5007075;28;20502;-73
2022/05/13 08:54:19;;;;;;;2.60;1.30;;;21.70;41.10;;;;;;5025247;28;20477;-74
2022/05/13 08:56:52;;;;;;;2.37;1.67;;;21.60;41.50;;;;;;5035260;28;20512;-73
2022/05/13 08:59:24;;;;;;;3.60;1.40;;;21.60;42.10;;;;;;5026218;28;20476;-73
2022/05/13 09:01:58;;;;;;;1.80;0.97;;;21.60;42.50;;;;;;5014872;28;20835;-73
2022/05/13 09:04:35;;;;;;;2.67;1.00;;;21.60;42.50;;;;;;5013972;28;20477;-73
2022/05/13 09:07:06;;;;;;;2.87;1.53;;;21.70;42.50;;;;;;4996066;28;20488;-73
2022/05/13 09:09:36;;;;;;;2.10;0.87;;;21.80;42.60;;;;;;5009282;28;20515;-74
2022/05/13 09:12:12;;;;;;;4.93;1.90;;;21.80;42.60;;;;;;5005255;28;20445;-72
2022/05/13 09:14:46;;;;;;;2.20;1.40;;;21.90;42.80;;;;;;5008465;28;20464;-73
2022/05/13 09:17:29;;;;;;;2.13;0.90;;;21.90;42.80;;;;;;5014599;28;20441;-73
2022/05/13 09:20:00;;;;;;;1.27;1.00;;;22.00;43.00;;;;;;4994806;28;21057;-73
2022/05/13 09:22:37;;;;;;;1.37;1.00;;;22.00;42.90;;;;;;5012055;28;20942;-73
2022/05/13 09:25:06;;;;;;;3.60;1.33;;;22.00;42.80;;;;;;5044497;28;20547;-73
2022/05/13 09:27:50;;;;;;;1.77;1.07;;;22.00;43.00;;;;;;5022380;28;20818;-74
2022/05/13 09:30:20;;;;;;;1.63;0.83;;;22.10;42.90;;;;;;5014097;28;20491;-74
2022/05/13 09:32:49;;;;;;;1.73;1.07;;;22.00;43.10;;;;;;5033866;28;20952;-74
2022/05/13 09:35:30;;;;;;;2.67;1.30;;;22.10;43.20;;;;;;5047919;28;20463;-73
2022/05/13 09:37:58;;;;;;;1.47;1.10;;;22.10;43.20;;;;;;5032437;28;20429;-74
2022/05/13 09:40:27;;;;;;;4.30;1.60;;;22.10;43.20;;;;;;5041842;28;20476;-74
2022/05/13 09:42:58;;;;;;;1.60;1.30;;;22.10;42.90;;;;;;5034416;28;20443;-73
2022/05/13 09:45:28;;;;;;;1.87;1.50;;;22.10;43.10;;;;;;5046078;28;20471;-73
2022/05/13 09:48:12;;;;;;;1.03;0.80;;;22.10;43.20;;;;;;5033548;28;20470;-73
2022/05/13 09:50:42;;;;;;;4.53;1.17;;;22.10;43.40;;;;;;5022594;28;20472;-74
2022/05/13 09:53:31;;;;;;;1.77;1.00;;;22.10;43.20;;;;;;5024568;28;20432;-73
2022/05/13 09:56:01;;;;;;;3.93;1.40;;;22.10;43.20;;;;;;5012961;28;20507;-74
2022/05/13 09:58:34;;;;;;;2.20;1.03;;;22.10;43.10;;;;;;4994148;28;20463;-73
2022/05/13 10:01:07;;;;;;;3.80;1.03;;;22.10;43.50;;;;;;5009149;28;20429;-73
2022/05/13 10:03:37;;;;;;;1.37;1.00;;;22.10;42.90;;;;;;5016420;28;20874;-74
2022/05/13 10:06:19;;;;;;;1.43;1.30;;;22.10;43.00;;;;;;5018127;28;20842;-72
2022/05/13 10:08:54;;;;;;;2.40;1.23;;;22.10;42.90;;;;;;5045462;28;20466;-73
2022/05/13 10:14:28;;;;;;;1.10;0.83;;;22.10;42.90;;;;;;5052831;28;21017;-72
2022/05/13 10:17:00;;;;;;;1.50;1.00;;;22.10;42.90;;;;;;5049816;28;20517;-73
2022/05/13 10:19:35;;;;;;;2.53;1.07;;;22.10;44.30;;;;;;5023411;28;20468;-72
2022/05/13 10:22:12;;;;;;;2.30;0.87;;;22.10;43.00;;;;;;4994216;28;20434;-73
2022/05/13 10:24:47;;;;;;;0.80;0.80;;;22.10;43.20;;;;;;5005803;28;20469;-74
2022/05/13 10:27:22;;;;;;;1.20;0.93;;;22.10;43.20;;;;;;5005822;28;20567;-73
2022/05/13 10:29:58;;;;;;;1.53;1.00;;;22.10;43.50;;;;;;5005769;28;20460;-74
2022/05/13 10:32:34;;;;;;;1.90;1.03;;;22.10;43.40;;;;;;5013437;28;20428;-73
2022/05/13 10:35:08;;;;;;;1.97;0.90;;;22.10;43.30;;;;;;4993695;28;20473;-73
2022/05/13 10:37:48;;;;;;;1.87;1.00;;;22.10;43.50;;;;;;5013555;28;20776;-73
2022/05/13 10:40:20;;;;;;;2.40;0.80;;;22.10;43.30;;;;;;5012761;28;20472;-74
2022/05/13 10:42:58;;;;;;;1.17;0.93;;;22.10;43.10;;;;;;4997742;28;20446;-73
2022/05/13 10:45:30;;;;;;;1.93;1.27;;;22.10;43.40;;;;;;5007243;28;20468;-74
2022/05/13 10:48:12;;;;;;;2.57;1.20;;;22.10;43.50;;;;;;5012643;28;20599;-73
2022/05/13 10:50:50;;;;;;;3.30;1.10;;;22.10;43.40;;;;;;5011587;28;20515;-73
2022/05/13 10:53:23;;;;;;;1.50;1.00;;;22.10;43.50;;;;;;5002701;28;20515;-74
2022/05/13 10:55:58;;;;;;;4.27;1.03;;;22.10;43.40;;;;;;5012876;28;20464;-73
2022/05/13 10:58:36;;;;;;;2.10;0.90;;;22.10;43.40;;;;;;5011562;28;20437;-74
2022/05/13 11:01:31;;;;;;;1.40;0.80;;;22.10;43.50;;;;;;5012815;28;20439;-74
2022/05/13 11:04:04;;;;;;;1.17;0.90;;;22.10;43.60;;;;;;5001889;28;20509;-73
2022/05/13 11:06:46;;;;;;;2.97;1.00;;;22.10;43.20;;;;;;4992721;28;20805;-72
2022/05/13 11:09:26;;;;;;;1.90;0.80;;;22.10;43.50;;;;;;5021473;28;20464;-74
2022/05/13 11:12:02;;;;;;;1.73;1.00;;;22.10;43.60;;;;;;5031195;28;20453;-73
2022/05/13 11:14:45;;;;;;;1.67;0.80;;;22.10;43.60;;;;;;5034103;28;20479;-74
2022/05/13 11:17:25;;;;;;;1.33;0.80;;;22.10;43.70;;;;;;5032674;28;20428;-73
2022/05/13 11:20:07;;;;;;;0.80;0.80;;;22.10;43.60;;;;;;5018345;28;20493;-72
2022/05/13 11:22:39;;;;;;;1.10;0.77;;;22.10;43.50;;;;;;5006152;28;20526;-73
2022/05/13 11:28:22;;;;;;;3.03;1.03;;;22.10;43.70;;;;;;5029218;28;20981;-74
2022/05/13 11:31:00;;;;;;;1.50;1.07;;;22.10;44.00;;;;;;5031869;28;20486;-73
2022/05/13 11:33:40;;;;;;;1.90;1.23;;;22.10;43.50;;;;;;5033443;28;20794;-73
2022/05/13 11:36:21;;;;;;;1.33;0.90;;;22.10;43.50;;;;;;5032331;28;20496;-74
2022/05/13 11:39:17;;;;;;;1.10;1.00;;;22.10;43.40;;;;;;5025167;28;20885;-74
2022/05/13 11:41:54;;;;;;;1.90;1.10;;;22.10;43.50;;;;;;5028806;28;21005;-73
2022/05/13 11:44:52;;;;;;;0.83;0.70;;;22.10;43.70;;;;;;5011574;28;20522;-73
2022/05/13 11:47:41;;;;;;;1.57;0.80;;;22.10;43.80;;;;;;5022517;28;20460;-73
2022/05/13 11:50:13;;;;;;;1.20;0.90;;;22.10;43.70;;;;;;5024983;28;20468;-73
2022/05/13 11:52:48;;;;;;;2.50;1.30;;;22.10;43.70;;;;;;5012343;28;20433;-74
2022/05/13 11:55:23;;;;;;;1.70;1.03;;;22.10;43.60;;;;;;4995105;28;20473;-73
2022/05/13 11:57:53;;;;;;;1.70;1.00;;;22.10;43.70;;;;;;4992486;28;20448;-73
2022/05/13 12:00:37;;;;;;;2.60;0.77;;;22.10;43.80;;;;;;5010075;28;20461;-74
2022/05/13 12:03:17;;;;;;;2.50;1.00;;;22.20;44.10;;;;;;5009063;28;20425;-74
2022/05/13 12:06:02;;;;;;;0.97;0.87;;;22.20;44.00;;;;;;5035081;28;20521;-73
2022/05/13 12:08:41;;;;;;;2.23;1.57;;;22.20;44.00;;;;;;5031246;28;20474;-74
2022/05/13 12:11:44;;;;;;;2.03;0.90;;;22.10;43.90;;;;;;5036548;28;20431;-73
2022/05/13 12:14:25;;;;;;;4.30;1.00;;;22.20;43.90;;;;;;5031010;28;20456;-73
2022/05/13 12:17:05;;;;;;;1.43;1.03;;;22.20;43.60;;;;;;5035341;28;20514;-74
2022/05/13 12:19:43;;;;;;;1.17;1.07;;;22.20;43.90;;;;;;5033753;28;20478;-74
2022/05/13 12:22:31;;;;;;;1.23;0.63;;;22.20;44.00;;;;;;5034818;28;20953;-74
2022/05/13 12:25:03;;;;;;;1.10;0.73;;;22.20;43.90;;;;;;5033789;28;20467;-73
2022/05/13 12:27:37;;;;;;;1.43;0.90;;;22.20;43.70;;;;;;5034485;28;20544;-73
2022/05/13 12:30:31;;;;;;;1.47;0.87;;;22.20;43.90;;;;;;5045163;28;20523;-73
2022/05/13 12:33:35;;;;;;;1.37;0.80;;;22.20;44.70;;;;;;5039717;28;20767;-74
2022/05/13 12:39:09;;;;;;;1.53;0.70;;;22.10;43.80;;;;;;5015033;28;20982;-73
2022/05/13 12:41:52;;;;;;;1.03;0.87;;;22.10;43.90;;;;;;5015409;28;20532;-74
2022/05/13 12:44:33;;;;;;;1.57;0.90;;;22.10;44.30;;;;;;5006196;28;20469;-73
2022/05/13 12:47:19;;;;;;;1.00;0.90;;;22.10;43.80;;;;;;4995698;28;20516;-73
2022/05/13 12:49:55;;;;;;;1.53;0.77;;;22.10;44.10;;;;;;4994791;28;20472;-73
2022/05/13 12:52:35;;;;;;;0.93;0.87;;;22.10;43.80;;;;;;5015340;28;20831;-73
2022/05/13 12:55:10;;;;;;;2.63;0.97;;;22.10;43.60;;;;;;5015537;28;20460;-73
2022/05/13 12:57:42;;;;;;;1.30;0.97;;;22.20;43.60;;;;;;5001264;28;20421;-73
2022/05/13 13:00:13;;;;;;;2.43;1.03;;;22.20;44.00;;;;;;4993535;28;20469;-73
2022/05/13 13:02:43;;;;;;;1.70;1.03;;;22.20;44.10;;;;;;4994556;28;20434;-73
2022/05/13 13:05:18;;;;;;;1.17;0.90;;;22.20;44.30;;;;;;4994599;28;20883;-72
2022/05/13 13:07:47;;;;;;;2.20;1.30;;;22.20;45.60;;;;;;4995246;28;21053;-73
2022/05/13 13:10:22;;;;;;;1.20;1.10;;;22.20;44.30;;;;;;4995014;28;20461;-73
2022/05/13 13:13:05;;;;;;;2.83;0.90;;;22.20;44.10;;;;;;4995233;28;20449;-72
2022/05/13 13:15:37;;;;;;;2.03;0.90;;;22.20;44.30;;;;;;4994495;28;20993;-73
2022/05/13 13:18:09;;;;;;;1.40;0.87;;;22.20;44.30;;;;;;5010749;28;20831;-73
2022/05/13 13:20:49;;;;;;;1.00;0.77;;;22.20;44.00;;;;;;4994653;28;20530;-73
2022/05/13 13:23:18;;;;;;;2.80;1.27;;;22.20;44.00;;;;;;4994761;28;20637;-73
2022/05/13 13:25:51;;;;;;;0.83;0.73;;;22.20;44.30;;;;;;4994825;28;20453;-73
2022/05/13 13:28:26;;;;;;;1.73;1.03;;;22.20;44.50;;;;;;5006974;28;20507;-73
2022/05/13 13:30:57;;;;;;;1.53;0.77;;;22.20;44.30;;;;;;5014796;28;20474;-73
2022/05/13 13:33:27;;;;;;;1.23;1.00;;;22.20;44.30;;;;;;5013864;28;20417;-73
2022/05/13 13:36:07;;;;;;;1.27;0.93;;;22.20;44.50;;;;;;5003261;28;20466;-73
2022/05/13 13:38:36;;;;;;;1.17;1.00;;;22.20;44.60;;;;;;4994187;28;20422;-73
2022/05/13 13:41:06;;;;;;;1.00;0.73;;;22.30;44.70;;;;;;4994946;28;20450;-73